Time;durP1;ratioP1;P1;durP2;ratioP2;P2;SDS_P1;SDS_P2;PMS_P1;PMS_P2;Temp;Humidity;BMP_temperature;BMP_pressure;BME280_temperature;BME280_humidity;BME280_pressure;Samples;Min_cycle;Max_cycle;Signal;HPM_P1;HPM_P2
2022/01/02 00:00:28;;;;;;;18.00;15.33;;;;;;;;;;5056753;28;20254;-77
2022/01/02 00:03:04;;;;;;;8.57;6.70;;;;;;;;;;5056684;28;20256;-78
2022/01/02 00:05:35;;;;;;;14.80;11.87;;;;;;;;;;5072788;28;20244;-76
2022/01/02 00:08:02;;;;;;;9.40;7.00;;;;;;;;;;5041481;28;20671;-77
2022/01/02 00:10:33;;;;;;;6.23;4.10;;;;;;;;;;5040196;28;20222;-77
2022/01/02 00:12:59;;;;;;;5.63;4.50;;;;;;;;;;5056552;28;20253;-78
2022/01/02 00:15:25;;;;;;;5.50;4.10;;;;;;;;;;5056393;28;20268;-77
2022/01/02 00:17:52;;;;;;;8.27;6.37;;;;;;;;;;5057222;28;20884;-77
2022/01/02 00:20:22;;;;;;;7.97;6.43;;;;;;;;;;5042065;28;20212;-78
2022/01/02 00:22:51;;;;;;;6.93;4.90;;;;;;;;;;5020117;28;20219;-77
2022/01/02 00:25:38;;;;;;;7.93;4.30;;;;;;;;;;5024568;28;20302;-77
2022/01/02 00:28:05;;;;;;;5.83;4.47;;;;;;;;;;5053068;28;20223;-77
2022/01/02 00:30:33;;;;;;;5.33;4.00;;;;;;;;;;5056784;28;20751;-77
2022/01/02 00:33:02;;;;;;;8.00;4.13;;;;;;;;;;5039476;28;20599;-77
2022/01/02 00:35:30;;;;;;;4.90;3.77;;;;;;;;;;5056457;28;20591;-77
2022/01/02 00:37:56;;;;;;;5.23;3.90;;;;;;;;;;5039867;28;20221;-77
2022/01/02 00:40:21;;;;;;;5.13;4.10;;;;;;;;;;5055565;28;20223;-77
2022/01/02 00:42:56;;;;;;;6.33;4.37;;;;;;;;;;5039289;28;20219;-77
2022/01/02 00:45:31;;;;;;;6.13;4.40;;;;;;;;;;5022554;28;20226;-77
2022/01/02 00:48:05;;;;;;;6.90;4.70;;;;;;;;;;5033856;28;20310;-77
2022/01/02 00:50:36;;;;;;;6.23;4.60;;;;;;;;;;5041565;28;20329;-77
2022/01/02 00:53:06;;;;;;;5.57;4.20;;;;;;;;;;5055480;28;20222;-77
2022/01/02 00:55:33;;;;;;;6.33;4.20;;;;;;;;;;5039511;28;20237;-77
2022/01/02 00:58:06;;;;;;;6.13;4.43;;;;;;;;;;5040422;28;20215;-77
2022/01/02 01:00:32;;;;;;;7.07;4.37;;;;;;;;;;5055423;28;20229;-78
2022/01/02 01:03:08;;;;;;;5.33;4.23;;;;;;;;;;5071669;28;20215;-77
2022/01/02 01:05:36;;;;;;;6.97;4.60;;;;;;;;;;5040313;28;20260;-77
2022/01/02 01:08:09;;;;;;;8.33;4.70;;;;;;;;;;5039415;28;20226;-77
2022/01/02 01:10:38;;;;;;;6.73;5.00;;;;;;;;;;5039830;28;20596;-77
2022/01/02 01:13:08;;;;;;;7.10;4.47;;;;;;;;;;5038047;28;20219;-77
2022/01/02 01:15:34;;;;;;;6.77;4.53;;;;;;;;;;5055455;28;20356;-77
2022/01/02 01:18:00;;;;;;;6.13;4.90;;;;;;;;;;5038490;28;20665;-77
2022/01/02 01:20:29;;;;;;;9.33;4.77;;;;;;;;;;5071622;28;20211;-77
2022/01/02 01:22:55;;;;;;;9.63;5.00;;;;;;;;;;5039043;28;20257;-77
2022/01/02 01:25:21;;;;;;;8.90;5.47;;;;;;;;;;5038441;28;20305;-77
2022/01/02 01:27:50;;;;;;;6.63;4.80;;;;;;;;;;5035620;28;20239;-77
2022/01/02 01:30:21;;;;;;;7.37;5.03;;;;;;;;;;5034899;28;20220;-77
2022/01/02 01:32:47;;;;;;;6.47;5.67;;;;;;;;;;5055610;28;20246;-77
2022/01/02 01:35:15;;;;;;;6.43;5.23;;;;;;;;;;5054535;28;20619;-77
2022/01/02 01:37:45;;;;;;;6.50;5.20;;;;;;;;;;5071790;28;20223;-77
2022/01/02 01:40:14;;;;;;;10.23;5.47;;;;;;;;;;5023015;28;20261;-77
2022/01/02 01:42:55;;;;;;;5.73;5.07;;;;;;;;;;5039942;28;20215;-76
2022/01/02 01:47:54;;;;;;;7.83;5.87;;;;;;;;;;5049899;28;20240;-76
2022/01/02 01:50:36;;;;;;;7.03;5.93;;;;;;;;;;5034459;28;20219;-77
2022/01/02 01:53:04;;;;;;;8.03;5.73;;;;;;;;;;5021440;28;20223;-77
2022/01/02 01:55:32;;;;;;;7.20;5.63;;;;;;;;;;5054492;28;20295;-77
2022/01/02 01:58:01;;;;;;;7.33;5.53;;;;;;;;;;5039094;28;20301;-77
2022/01/02 02:00:35;;;;;;;8.07;5.30;;;;;;;;;;5038505;28;20818;-77
2022/01/02 02:03:08;;;;;;;7.77;5.60;;;;;;;;;;5055480;28;20287;-77
2022/01/02 02:05:36;;;;;;;8.03;5.47;;;;;;;;;;5054735;28;20783;-77
2022/01/02 02:08:04;;;;;;;7.83;5.87;;;;;;;;;;5047686;28;20298;-77
2022/01/02 02:10:39;;;;;;;7.77;6.03;;;;;;;;;;5034236;28;20215;-77
2022/01/02 02:13:09;;;;;;;7.43;5.80;;;;;;;;;;5055017;28;20225;-77
2022/01/02 02:15:39;;;;;;;8.13;5.50;;;;;;;;;;5070158;28;20211;-77
2022/01/02 02:18:05;;;;;;;8.33;5.50;;;;;;;;;;5054135;28;20253;-77
2022/01/02 02:20:36;;;;;;;9.13;6.47;;;;;;;;;;5070669;28;20306;-76
2022/01/02 02:23:08;;;;;;;8.20;5.93;;;;;;;;;;5070070;28;20226;-77
2022/01/02 02:25:37;;;;;;;7.43;6.07;;;;;;;;;;5022098;28;20720;-77
2022/01/02 02:28:07;;;;;;;8.20;6.03;;;;;;;;;;5069741;28;20211;-77
2022/01/02 02:30:38;;;;;;;10.87;6.07;;;;;;;;;;5037691;28;20253;-77
2022/01/02 02:33:05;;;;;;;9.63;6.20;;;;;;;;;;5036886;28;20294;-77
2022/01/02 02:35:34;;;;;;;7.53;6.07;;;;;;;;;;5021496;28;20214;-77
2022/01/02 02:38:07;;;;;;;8.47;6.37;;;;;;;;;;5038456;28;20223;-77
2022/01/02 02:40:36;;;;;;;9.33;6.83;;;;;;;;;;5069924;28;20611;-77
2022/01/02 02:43:13;;;;;;;10.67;6.53;;;;;;;;;;5037550;28;20210;-76
2022/01/02 02:51:21;;;;;;;9.33;6.37;;;;;;;;;;5041483;28;20222;-77
2022/01/02 02:53:50;;;;;;;8.43;6.93;;;;;;;;;;5017547;28;20262;-77
2022/01/02 02:58:41;;;;;;;9.47;7.03;;;;;;;;;;5048749;28;20591;-77
2022/01/02 03:01:09;;;;;;;7.80;6.97;;;;;;;;;;5053408;28;20222;-77
2022/01/02 03:03:37;;;;;;;7.57;6.73;;;;;;;;;;5037119;28;20240;-77
2022/01/02 03:06:05;;;;;;;9.87;7.03;;;;;;;;;;5052806;28;20692;-77
2022/01/02 03:08:36;;;;;;;9.80;7.33;;;;;;;;;;5038054;28;20305;-77
2022/01/02 03:11:08;;;;;;;10.53;7.30;;;;;;;;;;5054281;28;20214;-77
2022/01/02 03:13:35;;;;;;;10.37;7.70;;;;;;;;;;5070139;28;20221;-76
2022/01/02 03:16:00;;;;;;;10.33;7.70;;;;;;;;;;5053769;28;20314;-76
2022/01/02 03:18:26;;;;;;;10.47;8.03;;;;;;;;;;5039635;28;20580;-76
2022/01/02 03:20:55;;;;;;;10.27;7.70;;;;;;;;;;5033068;28;20273;-77
2022/01/02 03:23:20;;;;;;;11.83;7.50;;;;;;;;;;5052307;28;20237;-76
2022/01/02 03:25:49;;;;;;;11.03;7.37;;;;;;;;;;5036744;28;20293;-76
2022/01/02 03:28:15;;;;;;;9.07;7.00;;;;;;;;;;5070540;28;20210;-76
2022/01/02 03:30:41;;;;;;;9.33;6.97;;;;;;;;;;5053074;28;20261;-76
2022/01/02 03:33:10;;;;;;;11.10;7.60;;;;;;;;;;5052418;28;20206;-77
2022/01/02 03:35:43;;;;;;;11.47;7.83;;;;;;;;;;5053630;28;20221;-76
2022/01/02 03:38:08;;;;;;;11.80;7.60;;;;;;;;;;5033117;28;20200;-76
2022/01/02 03:40:34;;;;;;;11.93;7.67;;;;;;;;;;5032988;28;20269;-76
2022/01/02 03:43:00;;;;;;;12.23;7.50;;;;;;;;;;5034905;28;20214;-77
2022/01/02 03:45:28;;;;;;;9.17;7.60;;;;;;;;;;5037288;28;20626;-77
2022/01/02 03:47:58;;;;;;;12.80;7.50;;;;;;;;;;5037186;28;20253;-76
2022/01/02 03:50:26;;;;;;;9.63;7.17;;;;;;;;;;5051028;28;20238;-76
2022/01/02 03:52:56;;;;;;;11.77;7.33;;;;;;;;;;5051475;28;20215;-77
2022/01/02 03:55:26;;;;;;;9.10;7.40;;;;;;;;;;5069149;28;20223;-77
2022/01/02 03:57:52;;;;;;;8.97;7.17;;;;;;;;;;5053675;28;20756;-77
2022/01/02 04:00:20;;;;;;;9.47;6.80;;;;;;;;;;5052081;28;20305;-76
2022/01/02 04:02:46;;;;;;;9.97;7.47;;;;;;;;;;5052883;28;20237;-77
2022/01/02 04:05:15;;;;;;;9.43;6.70;;;;;;;;;;5036156;28;20251;-76
2022/01/02 04:07:46;;;;;;;9.27;6.87;;;;;;;;;;5020434;28;20222;-76
2022/01/02 04:10:14;;;;;;;9.70;6.70;;;;;;;;;;5052777;28;20215;-77
2022/01/02 04:12:42;;;;;;;8.27;6.37;;;;;;;;;;5069483;28;20219;-77
2022/01/02 04:15:11;;;;;;;8.80;7.23;;;;;;;;;;5036582;28;20692;-76
2022/01/02 04:17:41;;;;;;;10.00;7.00;;;;;;;;;;5037087;28;20211;-76
2022/01/02 04:20:12;;;;;;;8.67;6.60;;;;;;;;;;5036942;28;20235;-78
2022/01/02 04:22:38;;;;;;;8.77;6.87;;;;;;;;;;5052249;28;20715;-77
2022/01/02 04:25:06;;;;;;;10.97;6.53;;;;;;;;;;5068806;28;20214;-77
2022/01/02 04:27:34;;;;;;;9.10;7.37;;;;;;;;;;5069426;28;20225;-77
2022/01/02 04:30:03;;;;;;;9.03;6.70;;;;;;;;;;5052862;28;20211;-76
2022/01/02 04:32:29;;;;;;;10.23;6.93;;;;;;;;;;5035676;28;20222;-77
2022/01/02 04:34:54;;;;;;;10.67;7.20;;;;;;;;;;5053652;28;20268;-77
2022/01/02 04:37:25;;;;;;;9.33;6.50;;;;;;;;;;5036625;28;20222;-76
2022/01/02 04:39:51;;;;;;;10.27;7.20;;;;;;;;;;5055501;28;20235;-77
2022/01/02 04:42:17;;;;;;;8.60;7.07;;;;;;;;;;5021982;28;20742;-77
2022/01/02 04:44:42;;;;;;;8.37;7.03;;;;;;;;;;5056471;28;20609;-77
2022/01/02 04:47:12;;;;;;;9.50;7.17;;;;;;;;;;5038103;28;20847;-77
2022/01/02 04:49:39;;;;;;;9.20;7.10;;;;;;;;;;5039945;28;20219;-77
2022/01/02 04:52:04;;;;;;;11.03;7.13;;;;;;;;;;5054917;28;20246;-77
2022/01/02 04:54:33;;;;;;;8.67;7.00;;;;;;;;;;5039435;28;20214;-76
2022/01/02 04:57:00;;;;;;;10.70;7.27;;;;;;;;;;5072338;28;20230;-76
2022/01/02 04:59:27;;;;;;;9.33;7.17;;;;;;;;;;5038779;28;20733;-77
2022/01/02 05:01:52;;;;;;;9.33;7.10;;;;;;;;;;5038498;28;20318;-76
2022/01/02 05:04:18;;;;;;;7.83;6.90;;;;;;;;;;5038450;28;20229;-76
2022/01/02 05:06:43;;;;;;;9.60;7.03;;;;;;;;;;5071928;28;20229;-76
2022/01/02 05:09:12;;;;;;;8.87;7.13;;;;;;;;;;5038212;28;20298;-76
2022/01/02 05:11:40;;;;;;;10.80;7.20;;;;;;;;;;5055291;28;20218;-76
2022/01/02 05:14:08;;;;;;;10.50;7.40;;;;;;;;;;5039177;28;20267;-76
2022/01/02 05:16:33;;;;;;;8.87;6.87;;;;;;;;;;5035945;28;20219;-76
2022/01/02 05:19:02;;;;;;;9.83;7.23;;;;;;;;;;5035478;28;20306;-76
2022/01/02 05:21:31;;;;;;;8.47;7.07;;;;;;;;;;5036467;28;20246;-76
2022/01/02 05:24:00;;;;;;;9.13;7.13;;;;;;;;;;5034892;28;20223;-76
2022/01/02 05:26:31;;;;;;;10.00;7.13;;;;;;;;;;5038309;28;20225;-76
2022/01/02 05:28:59;;;;;;;10.30;6.90;;;;;;;;;;5055403;28;20222;-75
2022/01/02 05:31:27;;;;;;;9.50;6.37;;;;;;;;;;5054658;28;20297;-75
2022/01/02 05:33:53;;;;;;;8.17;6.50;;;;;;;;;;5038652;28;20219;-77
2022/01/02 05:36:24;;;;;;;8.10;6.30;;;;;;;;;;5030386;28;20607;-76
2022/01/02 05:38:49;;;;;;;7.63;6.23;;;;;;;;;;5052122;28;20318;-76
2022/01/02 05:41:15;;;;;;;12.00;6.80;;;;;;;;;;5031547;28;20306;-76
2022/01/02 05:43:45;;;;;;;12.77;9.30;;;;;;;;;;5054840;28;20493;-76
2022/01/02 05:46:14;;;;;;;10.27;6.97;;;;;;;;;;5038101;28;20724;-76
2022/01/02 05:48:42;;;;;;;8.97;6.20;;;;;;;;;;5047546;28;20246;-76
2022/01/02 05:51:10;;;;;;;9.10;6.60;;;;;;;;;;5071252;28;20257;-76
2022/01/02 05:53:38;;;;;;;10.80;6.90;;;;;;;;;;5054762;28;20305;-76
2022/01/02 05:56:06;;;;;;;9.00;6.43;;;;;;;;;;5041218;28;20242;-77
2022/01/02 05:58:36;;;;;;;7.43;6.13;;;;;;;;;;5019508;28;20239;-76
2022/01/02 06:01:02;;;;;;;8.87;6.03;;;;;;;;;;5030745;28;20230;-76
2022/01/02 06:03:31;;;;;;;8.97;5.63;;;;;;;;;;5041779;28;20239;-76
2022/01/02 06:05:56;;;;;;;9.60;5.80;;;;;;;;;;5062300;28;20251;-76
2022/01/02 06:08:24;;;;;;;8.83;5.63;;;;;;;;;;5042946;28;20295;-76
2022/01/02 06:10:50;;;;;;;7.87;5.57;;;;;;;;;;5041337;28;20218;-76
2022/01/02 06:13:19;;;;;;;11.30;5.63;;;;;;;;;;5063077;28;20271;-76
2022/01/02 06:15:45;;;;;;;9.07;5.57;;;;;;;;;;5023574;28;20215;-76
2022/01/02 06:18:10;;;;;;;7.50;4.80;;;;;;;;;;5051937;28;20230;-76
2022/01/02 06:20:36;;;;;;;7.33;4.93;;;;;;;;;;5038384;28;20298;-77
2022/01/02 06:23:01;;;;;;;8.63;4.70;;;;;;;;;;5054840;28;20767;-75
2022/01/02 06:25:27;;;;;;;8.87;5.00;;;;;;;;;;5038224;28;20253;-76
2022/01/02 06:27:57;;;;;;;7.87;4.70;;;;;;;;;;5055097;28;20214;-76
2022/01/02 06:30:27;;;;;;;6.80;4.40;;;;;;;;;;5022303;28;20246;-76
2022/01/02 06:32:56;;;;;;;9.47;4.30;;;;;;;;;;5037290;28;20229;-76
2022/01/02 06:35:32;;;;;;;8.10;4.50;;;;;;;;;;5054930;28;20210;-76
2022/01/02 06:37:58;;;;;;;8.17;4.50;;;;;;;;;;5034430;28;20215;-76
2022/01/02 06:40:27;;;;;;;6.80;4.37;;;;;;;;;;5050249;28;20215;-75
2022/01/02 06:42:54;;;;;;;8.17;4.43;;;;;;;;;;5048644;28;20306;-75
2022/01/02 06:45:20;;;;;;;8.43;4.30;;;;;;;;;;5018253;28;20226;-76
2022/01/02 06:47:46;;;;;;;9.97;4.27;;;;;;;;;;5051899;28;20206;-76
2022/01/02 06:50:16;;;;;;;10.83;4.20;;;;;;;;;;5054029;28;20218;-76
2022/01/02 06:52:42;;;;;;;6.07;4.20;;;;;;;;;;5053415;28;20218;-76
2022/01/02 06:55:10;;;;;;;7.33;4.03;;;;;;;;;;5037740;28;20691;-77
2022/01/02 06:57:38;;;;;;;7.77;3.90;;;;;;;;;;5053627;28;20302;-76
2022/01/02 07:00:06;;;;;;;7.43;3.80;;;;;;;;;;5052578;28;20242;-76
2022/01/02 07:02:35;;;;;;;6.07;3.70;;;;;;;;;;5053150;28;20225;-76
2022/01/02 07:05:20;;;;;;;6.80;3.70;;;;;;;;;;5053577;28;20231;-76
2022/01/02 07:07:48;;;;;;;8.97;3.93;;;;;;;;;;5040154;28;20222;-76
2022/01/02 07:10:16;;;;;;;6.87;4.20;;;;;;;;;;5049316;28;20266;-75
2022/01/02 07:12:46;;;;;;;10.17;3.97;;;;;;;;;;5046044;28;20219;-77
2022/01/02 07:15:14;;;;;;;9.27;4.27;;;;;;;;;;5052720;28;20214;-78
2022/01/02 07:17:39;;;;;;;9.13;4.03;;;;;;;;;;5036895;28;20643;-78
2022/01/02 07:20:08;;;;;;;6.87;3.70;;;;;;;;;;5069482;28;20215;-77
2022/01/02 07:22:34;;;;;;;7.87;3.90;;;;;;;;;;5020133;28;20761;-79
2022/01/02 07:25:04;;;;;;;8.50;3.87;;;;;;;;;;5053282;28;20704;-76
2022/01/02 07:27:32;;;;;;;6.33;3.70;;;;;;;;;;5070132;28;20288;-76
2022/01/02 07:30:00;;;;;;;7.87;3.93;;;;;;;;;;5039520;28;20214;-77
2022/01/02 07:32:26;;;;;;;6.80;4.00;;;;;;;;;;5051677;28;20625;-76
2022/01/02 07:34:54;;;;;;;8.87;4.50;;;;;;;;;;5072495;28;20228;-76
2022/01/02 07:37:25;;;;;;;8.83;4.50;;;;;;;;;;5028509;28;20676;-77
2022/01/02 07:39:53;;;;;;;8.37;4.07;;;;;;;;;;5070556;28;20215;-77
2022/01/02 07:42:21;;;;;;;6.47;4.17;;;;;;;;;;5052209;28;20601;-76
2022/01/02 07:44:54;;;;;;;7.53;4.37;;;;;;;;;;5053325;28;20222;-76
2022/01/02 07:47:21;;;;;;;11.20;4.43;;;;;;;;;;5071149;28;20219;-76
2022/01/02 07:49:49;;;;;;;10.07;4.33;;;;;;;;;;5049360;28;20223;-76
2022/01/02 07:52:17;;;;;;;12.33;4.60;;;;;;;;;;5033588;28;20257;-76
2022/01/02 07:54:45;;;;;;;11.10;4.60;;;;;;;;;;5049897;28;20215;-76
2022/01/02 07:57:10;;;;;;;10.00;4.23;;;;;;;;;;5035557;28;20268;-76
2022/01/02 07:59:39;;;;;;;9.97;4.87;;;;;;;;;;5069532;28;20233;-77
2022/01/02 08:02:09;;;;;;;8.80;4.90;;;;;;;;;;5068961;28;20219;-76
2022/01/02 08:04:36;;;;;;;10.73;5.00;;;;;;;;;;5053614;28;20749;-75
2022/01/02 08:07:07;;;;;;;10.40;4.93;;;;;;;;;;5068891;28;20214;-76
2022/01/02 08:09:32;;;;;;;9.73;4.97;;;;;;;;;;5036426;28;20254;-76
2022/01/02 08:11:58;;;;;;;9.57;5.10;;;;;;;;;;5052759;28;20572;-77
2022/01/02 08:14:26;;;;;;;9.43;5.00;;;;;;;;;;5073170;28;20275;-77
2022/01/02 08:16:51;;;;;;;9.17;5.03;;;;;;;;;;5053299;28;20589;-76
2022/01/02 08:19:17;;;;;;;11.43;5.07;;;;;;;;;;5054111;28;20236;-76
2022/01/02 08:21:45;;;;;;;8.00;4.90;;;;;;;;;;5037359;28;20223;-76
2022/01/02 08:24:12;;;;;;;8.60;4.27;;;;;;;;;;5072618;28;20215;-76
2022/01/02 08:26:46;;;;;;;6.77;4.37;;;;;;;;;;5039377;28;20257;-76
2022/01/02 08:29:16;;;;;;;8.23;4.93;;;;;;;;;;5031038;28;20230;-77
2022/01/02 08:31:48;;;;;;;10.87;5.00;;;;;;;;;;5070274;28;20222;-76
2022/01/02 08:34:20;;;;;;;6.67;4.67;;;;;;;;;;5054562;28;20279;-77
2022/01/02 08:36:47;;;;;;;8.67;5.23;;;;;;;;;;5073189;28;20219;-76
2022/01/02 08:39:18;;;;;;;8.17;4.03;;;;;;;;;;5042086;28;20218;-76
2022/01/02 08:41:43;;;;;;;8.77;4.50;;;;;;;;;;5066373;28;20238;-76
2022/01/02 08:44:11;;;;;;;9.13;4.90;;;;;;;;;;5074203;28;20222;-77
2022/01/02 08:46:36;;;;;;;8.10;4.93;;;;;;;;;;5075193;28;20253;-77
2022/01/02 08:49:04;;;;;;;8.67;4.10;;;;;;;;;;5022834;28;20215;-77
2022/01/02 08:51:59;;;;;;;8.50;4.50;;;;;;;;;;5073167;28;20219;-77
2022/01/02 08:54:38;;;;;;;8.33;4.13;;;;;;;;;;5024343;28;20223;-78
2022/01/02 08:57:09;;;;;;;7.50;4.50;;;;;;;;;;5053963;28;20239;-78
2022/01/02 08:59:42;;;;;;;5.70;4.00;;;;;;;;;;5067367;28;20222;-78
2022/01/02 09:02:10;;;;;;;8.67;4.07;;;;;;;;;;5056747;28;20219;-78
2022/01/02 09:04:36;;;;;;;6.53;3.83;;;;;;;;;;5073189;28;20257;-78
2022/01/02 09:07:05;;;;;;;6.87;3.90;;;;;;;;;;5055730;28;20242;-77
2022/01/02 09:09:31;;;;;;;7.43;4.10;;;;;;;;;;5055250;28;20227;-78
2022/01/02 09:11:59;;;;;;;6.67;4.20;;;;;;;;;;5072939;28;20316;-77
2022/01/02 09:14:25;;;;;;;6.63;3.70;;;;;;;;;;5065636;28;20237;-77
2022/01/02 09:16:51;;;;;;;7.97;3.87;;;;;;;;;;5050011;28;20684;-77
2022/01/02 09:19:22;;;;;;;6.63;3.70;;;;;;;;;;5072414;28;20269;-77
2022/01/02 09:21:52;;;;;;;7.83;3.80;;;;;;;;;;5039284;28;20219;-78
2022/01/02 09:24:18;;;;;;;5.33;3.60;;;;;;;;;;5072955;28;20657;-78
2022/01/02 09:26:48;;;;;;;10.60;4.10;;;;;;;;;;5056320;28;20225;-77
2022/01/02 09:29:14;;;;;;;8.57;3.73;;;;;;;;;;5040406;28;20277;-78
2022/01/02 09:31:47;;;;;;;8.43;3.23;;;;;;;;;;5073627;28;20219;-78
2022/01/02 09:34:13;;;;;;;5.33;3.30;;;;;;;;;;5071774;28;21054;-79
2022/01/02 09:36:38;;;;;;;7.53;3.50;;;;;;;;;;5070011;28;20222;-78
2022/01/02 09:39:04;;;;;;;7.97;3.50;;;;;;;;;;5071426;28;20218;-78
2022/01/02 09:41:32;;;;;;;5.40;3.53;;;;;;;;;;5048720;28;20214;-78
2022/01/02 09:44:00;;;;;;;7.20;3.90;;;;;;;;;;5038341;28;20225;-78
2022/01/02 09:46:29;;;;;;;7.17;4.07;;;;;;;;;;5054947;28;20215;-78
2022/01/02 09:48:54;;;;;;;7.23;3.47;;;;;;;;;;5068543;28;20234;-78
2022/01/02 09:51:24;;;;;;;6.10;3.40;;;;;;;;;;5047418;28;20231;-78
2022/01/02 09:53:50;;;;;;;5.50;3.40;;;;;;;;;;5061212;28;20219;-78
2022/01/02 09:56:18;;;;;;;8.20;3.27;;;;;;;;;;5036891;28;20260;-78
2022/01/02 09:58:50;;;;;;;8.10;3.33;;;;;;;;;;5060325;28;20294;-77
2022/01/02 10:01:21;;;;;;;7.40;3.57;;;;;;;;;;5036961;28;20229;-78
2022/01/02 10:03:53;;;;;;;6.77;3.53;;;;;;;;;;5060540;28;20225;-77
2022/01/02 10:06:22;;;;;;;9.87;3.43;;;;;;;;;;5036637;28;20351;-79
2022/01/02 10:08:47;;;;;;;6.80;3.77;;;;;;;;;;5052234;28;20762;-77
2022/01/02 10:11:22;;;;;;;7.27;3.50;;;;;;;;;;5053814;28;20218;-76
2022/01/02 10:13:51;;;;;;;6.57;3.47;;;;;;;;;;5051554;28;20220;-77
2022/01/02 10:16:33;;;;;;;6.17;2.87;;;;;;;;;;5067690;28;20590;-76
2022/01/02 10:19:26;;;;;;;5.33;3.13;;;;;;;;;;5069457;28;20226;-76
2022/01/02 10:21:56;;;;;;;7.67;3.57;;;;;;;;;;5045496;28;20231;-76
2022/01/02 10:24:24;;;;;;;8.30;3.60;;;;;;;;;;5037371;28;20246;-76
2022/01/02 10:27:12;;;;;;;6.77;3.90;;;;;;;;;;5038917;28;20215;-77
2022/01/02 10:29:58;;;;;;;7.43;3.80;;;;;;;;;;5054808;28;20300;-76
2022/01/02 10:32:34;;;;;;;6.83;3.90;;;;;;;;;;5053578;28;20253;-76
2022/01/02 10:35:16;;;;;;;8.23;4.30;;;;;;;;;;5053819;28;20222;-76
2022/01/02 10:37:53;;;;;;;7.50;4.07;;;;;;;;;;5054566;28;20276;-77
2022/01/02 10:40:32;;;;;;;11.93;6.50;;;;;;;;;;5038314;28;20222;-77
2022/01/02 10:42:59;;;;;;;9.33;4.90;;;;;;;;;;5054521;28;20711;-77
2022/01/02 10:45:32;;;;;;;8.23;5.03;;;;;;;;;;5070152;28;20229;-76
2022/01/02 10:47:58;;;;;;;9.63;4.60;;;;;;;;;;5050906;28;20283;-76
2022/01/02 10:50:26;;;;;;;8.70;4.60;;;;;;;;;;5040480;28;20219;-76
2022/01/02 10:52:57;;;;;;;11.70;6.93;;;;;;;;;;5036970;28;20230;-76
2022/01/02 10:55:24;;;;;;;5.33;4.30;;;;;;;;;;5070417;28;20643;-76
2022/01/02 10:57:53;;;;;;;8.90;5.10;;;;;;;;;;5070503;28;20218;-77
2022/01/02 11:00:20;;;;;;;7.97;4.23;;;;;;;;;;5052698;28;20227;-75
2022/01/02 11:02:46;;;;;;;8.40;4.50;;;;;;;;;;5038046;28;20223;-77
2022/01/02 11:05:13;;;;;;;9.73;4.93;;;;;;;;;;5071264;28;20224;-76
2022/01/02 11:07:38;;;;;;;12.37;5.43;;;;;;;;;;5054908;28;20215;-77
2022/01/02 11:10:08;;;;;;;8.50;5.03;;;;;;;;;;5057781;28;20638;-75
2022/01/02 11:12:33;;;;;;;11.30;5.60;;;;;;;;;;5054209;28;20236;-76
2022/01/02 11:15:01;;;;;;;9.83;6.17;;;;;;;;;;5070254;28;20222;-78
2022/01/02 11:17:27;;;;;;;24.93;19.43;;;;;;;;;;5049775;28;20291;-77
2022/01/02 11:19:55;;;;;;;17.57;13.07;;;;;;;;;;5054167;28;20227;-76
2022/01/02 11:22:34;;;;;;;9.67;6.60;;;;;;;;;;5068878;28;20226;-75
2022/01/02 11:25:07;;;;;;;9.70;7.07;;;;;;;;;;5037503;28;20222;-76
2022/01/02 11:27:44;;;;;;;46.87;29.93;;;;;;;;;;5065263;28;20215;-77
2022/01/02 11:30:30;;;;;;;19.33;13.47;;;;;;;;;;5016794;28;20288;-77
2022/01/02 11:33:06;;;;;;;10.63;6.47;;;;;;;;;;5049577;28;20223;-76
2022/01/02 11:35:32;;;;;;;7.83;4.63;;;;;;;;;;5034997;28;20594;-77
2022/01/02 11:38:02;;;;;;;8.63;5.27;;;;;;;;;;5020115;28;20214;-77
2022/01/02 11:40:43;;;;;;;9.87;5.00;;;;;;;;;;5053170;28;20223;-76
2022/01/02 11:43:08;;;;;;;6.90;4.73;;;;;;;;;;5050496;28;20347;-77
2022/01/02 11:45:42;;;;;;;9.97;5.73;;;;;;;;;;5066315;28;20240;-77
2022/01/02 11:48:29;;;;;;;10.67;5.13;;;;;;;;;;5024560;28;20237;-76
2022/01/02 11:50:57;;;;;;;8.83;5.30;;;;;;;;;;5023463;28;20229;-76
2022/01/02 11:53:28;;;;;;;8.43;5.27;;;;;;;;;;5056593;28;20221;-76
2022/01/02 11:55:54;;;;;;;8.00;4.73;;;;;;;;;;5057606;28;20219;-76
2022/01/02 11:58:38;;;;;;;19.57;12.17;;;;;;;;;;5056544;28;20260;-76
2022/01/02 12:01:06;;;;;;;12.03;7.20;;;;;;;;;;5072711;28;20255;-77
2022/01/02 12:03:38;;;;;;;16.33;9.90;;;;;;;;;;5039356;28;20272;-77
2022/01/02 12:06:23;;;;;;;14.97;8.53;;;;;;;;;;5073826;28;20226;-75
2022/01/02 12:08:52;;;;;;;12.83;8.57;;;;;;;;;;5074534;28;20222;-77
2022/01/02 12:11:34;;;;;;;10.70;5.83;;;;;;;;;;5038171;28;20806;-77
2022/01/02 12:14:06;;;;;;;12.20;6.67;;;;;;;;;;5072589;28;20254;-74
2022/01/02 12:16:35;;;;;;;14.73;9.93;;;;;;;;;;5057238;28;20274;-73
2022/01/02 12:19:02;;;;;;;15.57;7.20;;;;;;;;;;5072754;28;20584;-73
2022/01/02 12:21:32;;;;;;;10.57;6.07;;;;;;;;;;5055053;28;20313;-73
2022/01/02 12:23:59;;;;;;;7.23;4.80;;;;;;;;;;5040569;28;20641;-73
2022/01/02 12:26:32;;;;;;;7.70;4.70;;;;;;;;;;5072474;28;20214;-74
2022/01/02 12:29:05;;;;;;;10.47;4.50;;;;;;;;;;5056722;28;20248;-74
2022/01/02 12:31:38;;;;;;;6.67;5.10;;;;;;;;;;5072073;28;20227;-75
2022/01/02 12:34:12;;;;;;;8.97;4.23;;;;;;;;;;5038413;28;20695;-73
2022/01/02 12:36:41;;;;;;;7.63;4.90;;;;;;;;;;5072666;28;20261;-73
2022/01/02 12:39:13;;;;;;;7.80;4.50;;;;;;;;;;5071840;28;20223;-72
2022/01/02 12:41:41;;;;;;;7.40;4.80;;;;;;;;;;5039074;28;20296;-73
2022/01/02 12:44:15;;;;;;;7.57;4.47;;;;;;;;;;5056034;28;20302;-73
2022/01/02 12:46:44;;;;;;;10.27;4.57;;;;;;;;;;5073098;28;20562;-72
2022/01/02 12:49:20;;;;;;;6.83;3.87;;;;;;;;;;5055259;28;20708;-75
2022/01/02 12:51:50;;;;;;;7.10;3.90;;;;;;;;;;5040013;28;20223;-72
2022/01/02 12:54:23;;;;;;;8.63;4.07;;;;;;;;;;5071600;28;20315;-73
2022/01/02 12:56:53;;;;;;;7.00;4.33;;;;;;;;;;5066980;28;20223;-76
2022/01/02 12:59:21;;;;;;;6.57;3.90;;;;;;;;;;5050708;28;21048;-75
2022/01/02 13:01:54;;;;;;;7.20;3.37;;;;;;;;;;5064600;28;20247;-75
2022/01/02 13:04:24;;;;;;;10.43;4.10;;;;;;;;;;5062724;28;20272;-76
2022/01/02 13:06:51;;;;;;;10.70;5.30;;;;;;;;;;5044445;28;20207;-75
2022/01/02 13:09:43;;;;;;;6.70;3.47;;;;;;;;;;5053764;28;20215;-78
2022/01/02 13:12:18;;;;;;;8.93;4.90;;;;;;;;;;5068979;28;20229;-76
2022/01/02 13:14:54;;;;;;;8.43;3.87;;;;;;;;;;5055950;28;20242;-76
2022/01/02 13:17:39;;;;;;;9.27;4.20;;;;;;;;;;5039318;28;20226;-76
2022/01/02 13:20:21;;;;;;;8.77;4.77;;;;;;;;;;5037867;28;20214;-75
2022/01/02 13:22:51;;;;;;;6.90;3.37;;;;;;;;;;5072927;28;20215;-75
2022/01/02 13:25:19;;;;;;;6.33;3.70;;;;;;;;;;5055201;28;20328;-76
2022/01/02 13:28:07;;;;;;;6.03;4.03;;;;;;;;;;5054405;28;20229;-77
2022/01/02 13:30:42;;;;;;;4.37;3.50;;;;;;;;;;5056969;28;20242;-76
2022/01/02 13:33:28;;;;;;;4.47;2.80;;;;;;;;;;5038475;28;20215;-78
2022/01/02 13:35:59;;;;;;;6.80;3.43;;;;;;;;;;5057344;28;20714;-77
2022/01/02 13:38:24;;;;;;;4.27;3.03;;;;;;;;;;5038303;28;20221;-76
2022/01/02 13:40:50;;;;;;;5.57;3.50;;;;;;;;;;5028923;28;20632;-77
2022/01/02 13:43:17;;;;;;;3.67;3.00;;;;;;;;;;5066145;28;20594;-76
2022/01/02 13:45:46;;;;;;;5.63;3.77;;;;;;;;;;5034082;28;20279;-74
2022/01/02 13:48:17;;;;;;;6.43;4.20;;;;;;;;;;5041307;28;20211;-74
2022/01/02 13:50:55;;;;;;;6.17;3.97;;;;;;;;;;5067348;28;20708;-75
2022/01/02 13:53:27;;;;;;;5.17;3.10;;;;;;;;;;5068213;28;20256;-75
2022/01/02 13:55:55;;;;;;;5.93;3.60;;;;;;;;;;5022758;28;20223;-75
2022/01/02 13:58:27;;;;;;;4.87;3.27;;;;;;;;;;5050708;28;20222;-76
2022/01/02 14:00:54;;;;;;;6.00;3.53;;;;;;;;;;5043925;28;20230;-77
2022/01/02 14:03:35;;;;;;;6.53;3.50;;;;;;;;;;5073258;28;20215;-75
2022/01/02 14:06:08;;;;;;;16.17;8.63;;;;;;;;;;5054143;28;20305;-74
2022/01/02 14:08:41;;;;;;;10.13;5.57;;;;;;;;;;5070872;28;20223;-74
2022/01/02 14:11:09;;;;;;;13.40;7.17;;;;;;;;;;5020106;28;20631;-76
2022/01/02 14:14:04;;;;;;;4.70;3.30;;;;;;;;;;5019870;28;20261;-76
2022/01/02 14:17:12;;;;;;;7.20;3.40;;;;;;;;;;5036371;28;20215;-74
2022/01/02 14:19:46;;;;;;;9.17;4.73;;;;;;;;;;5063298;28;20210;-75
2022/01/02 14:22:16;;;;;;;7.30;4.53;;;;;;;;;;5036745;28;20230;-74
2022/01/02 14:24:41;;;;;;;9.80;4.30;;;;;;;;;;5021955;28;20230;-74
2022/01/02 14:27:09;;;;;;;7.67;3.43;;;;;;;;;;5054558;28;20226;-75
2022/01/02 14:29:35;;;;;;;4.80;3.60;;;;;;;;;;5077014;28;20257;-77
2022/01/02 14:32:00;;;;;;;7.20;4.47;;;;;;;;;;5049047;28;21006;-71
2022/01/02 14:34:31;;;;;;;4.00;3.30;;;;;;;;;;5070722;28;20297;-76
2022/01/02 14:36:59;;;;;;;10.00;3.90;;;;;;;;;;5033913;28;20298;-75
2022/01/02 14:39:28;;;;;;;6.33;3.27;;;;;;;;;;5048973;28;20781;-75
2022/01/02 14:41:56;;;;;;;6.90;3.80;;;;;;;;;;5047796;28;20258;-74
2022/01/02 14:44:21;;;;;;;7.30;4.70;;;;;;;;;;5047235;28;20683;-76
2022/01/02 14:46:50;;;;;;;11.40;6.53;;;;;;;;;;5046044;28;20215;-74
2022/01/02 14:49:16;;;;;;;7.70;3.90;;;;;;;;;;5051724;28;20258;-76
2022/01/02 14:51:42;;;;;;;29.43;24.80;;;;;;;;;;5073133;28;20226;-76
2022/01/02 14:54:15;;;;;;;6.43;3.47;;;;;;;;;;5083903;28;20219;-74
2022/01/02 14:56:40;;;;;;;7.33;5.53;;;;;;;;;;5067914;28;20215;-75
2022/01/02 14:59:09;;;;;;;23.90;12.63;;;;;;;;;;5049668;28;20215;-74
2022/01/02 15:01:35;;;;;;;22.17;16.00;;;;;;;;;;5052450;28;20242;-76
2022/01/02 15:04:05;;;;;;;22.70;18.73;;;;;;;;;;5069085;28;20219;-75
2022/01/02 15:06:31;;;;;;;10.67;6.33;;;;;;;;;;5039809;28;20225;-73